Date,TemperatureHighF,TemperatureAvgF,TemperatureLowF,DewpointHighF,DewpointAvgF,DewpointLowF,HumidityHigh,HumidityAvg,HumidityLow,PressureMaxIn,PressureMinIn,WindSpeedMaxMPH,WindSpeedAvgMPH,GustSpeedMaxMPH,PrecipitationSumIn
2013-2-1,34.3,28.0,20.8,29.7,16.5,9.0,94,62,48,30.38,29.78,22,4,26,0.00
2013-2-2,33.1,25.6,17.2,28.8,17.7,8.8,96,73,54,30.38,29.99,12,1,13,0.00
2013-2-3,34.5,31.2,26.8,31.6,28.8,22.8,100,91,65,29.99,29.82,12,0,12,0.03
2013-2-4,37.4,32.2,26.1,28.2,21.4,16.5,69,64,57,30.09,29.88,23,1,28,0.00
2013-2-5,42.6,38.1,34.3,33.6,30.4,26.6,82,74,67,29.91,29.83,6,0,6,0.00
2013-2-6,46.8,39.5,33.8,34.9,31.3,26.2,88,73,58,30.33,29.91,17,2,18,0.00
2013-2-7,41.7,36.3,31.3,33.4,29.1,24.6,85,75,66,30.43,30.18,8,1,12,0.00
2013-2-8,43.5,38.4,34.0,41.0,35.5,27.1,99,90,67,30.18,29.72,23,3,26,0.22
2013-2-9,41.2,35.9,30.9,27.3,23.9,21.0,74,62,50,30.37,29.89,23,5,25,0.00
2013-2-10,45.7,36.8,26.6,32.5,24.2,19.4,78,61,42,30.47,30.22,7,0,9,0.00
2013-2-11,53.8,45.6,38.3,53.1,44.7,32.7,100,97,60,30.22,29.69,9,1,11,0.29
2013-2-12,57.6,50.5,42.6,39.7,34.9,32.0,72,55,44,29.97,29.78,20,2,20,0.01
2013-2-13,47.5,40.0,35.4,40.3,34.5,30.2,99,81,64,29.93,29.63,11,1,12,0.20
2013-2-14,50.4,41.2,34.3,35.8,33.7,31.1,99,76,53,30.00,29.75,9,1,11,0.01
2013-2-15,61.7,45.2,34.5,43.0,37.6,33.3,97,78,44,30.01,29.86,17,1,17,0.08
2013-2-16,39.9,37.1,32.5,37.4,32.8,22.1,99,85,61,29.99,29.81,13,1,15,0.01
2013-2-17,32.7,29.3,26.1,22.3,16.8,11.7,72,60,47,30.19,29.81,23,6,24,0.00
2013-2-18,43.5,32.3,22.3,24.4,16.8,12.4,67,53,40,30.37,30.14,12,1,15,0.00
2013-2-19,45.7,40.9,37.2,44.1,34.6,24.6,97,79,57,30.15,29.71,12,1,15,0.10
2013-2-20,39.9,34.6,26.8,29.5,21.2,14.0,66,58,50,30.15,29.82,28,5,28,0.00
2013-2-21,39.6,31.6,25.5,23.4,19.2,14.0,67,60,51,30.30,30.12,19,4,20,0.00
2013-2-22,34.9,33.3,31.6,33.3,28.6,22.6,97,83,68,30.36,30.19,8,0,8,0.06
2013-2-23,45.9,39.8,34.0,45.9,39.7,33.3,100,99,97,30.20,29.78,6,0,6,0.07
2013-2-24,52.5,43.8,34.9,44.1,36.0,23.9,99,76,49,30.09,29.77,19,3,19,0.00
2013-2-25,48.2,39.0,31.3,31.6,27.8,23.5,75,64,51,30.20,30.08,11,1,12,0.00
2013-2-26,45.5,39.5,33.3,45.3,36.6,27.9,100,90,72,30.20,29.57,16,2,18,0.62
2013-2-27,57.6,48.5,40.6,46.6,42.5,37.0,100,81,59,29.67,29.49,10,1,11,0.02
2013-2-28,48.0,44.5,41.5,40.3,34.7,30.2,88,69,51,29.71,29.60,13,2,14,0.01